createdAt,value
2022-07-29T00:02:27.664Z,96033.78
2022-07-29T00:04:54.461Z,96032.00
2022-07-29T00:07:21.423Z,96033.78
2022-07-29T00:09:51.733Z,96020.94
2022-07-29T00:12:21.364Z,96017.31
2022-07-29T00:14:52.789Z,96020.22
2022-07-29T00:17:21.968Z,96014.06
2022-07-29T00:19:49.578Z,96022.38
2022-07-29T00:22:16.430Z,96020.00
2022-07-29T00:24:42.913Z,96020.00
2022-07-29T00:27:09.439Z,96023.44
2022-07-29T00:29:38.287Z,96024.50
2022-07-29T00:32:05.270Z,96026.50
2022-07-29T00:34:32.122Z,96028.13
2022-07-29T00:36:58.742Z,96032.63
2022-07-29T00:39:27.513Z,96030.09
2022-07-29T00:41:54.941Z,96035.53
2022-07-29T00:44:21.678Z,96034.59
2022-07-29T00:46:48.657Z,96028.28
2022-07-29T00:49:16.433Z,96032.06
2022-07-29T00:51:43.096Z,96036.94
2022-07-29T00:54:10.804Z,96044.31
2022-07-29T00:56:37.608Z,96035.47
2022-07-29T00:59:04.240Z,96037.09
2022-07-29T01:01:30.876Z,96029.69
2022-07-29T01:03:57.709Z,96030.19
2022-07-29T01:06:24.442Z,96028.75
2022-07-29T01:08:51.109Z,96025.91
2022-07-29T01:11:18.946Z,96038.69
2022-07-29T01:13:45.869Z,96033.28
2022-07-29T01:16:12.811Z,96028.38
2022-07-29T01:18:39.394Z,96021.72
2022-07-29T01:21:08.604Z,96031.41
2022-07-29T01:23:35.212Z,96026.75
2022-07-29T01:26:01.806Z,96035.94
2022-07-29T01:28:30.241Z,96030.56
2022-07-29T01:30:58.166Z,96027.84
2022-07-29T01:33:24.731Z,96025.16
2022-07-29T01:35:52.370Z,96026.56
2022-07-29T01:38:18.905Z,96020.78
2022-07-29T01:40:46.334Z,96024.91
2022-07-29T01:43:13.186Z,96026.19
2022-07-29T01:45:41.235Z,96032.38
2022-07-29T01:48:08.702Z,96033.81
2022-07-29T01:50:35.295Z,96035.97
2022-07-29T01:53:02.141Z,96024.97
2022-07-29T01:55:29.094Z,96035.59
2022-07-29T01:57:55.850Z,96039.59
2022-07-29T02:00:24.162Z,96034.88
2022-07-29T02:02:50.784Z,96032.38
2022-07-29T02:05:17.763Z,96033.09
2022-07-29T02:07:44.393Z,96045.72
2022-07-29T02:10:11.737Z,96038.84
2022-07-29T02:12:38.811Z,96038.25
2022-07-29T02:15:05.515Z,96040.59
2022-07-29T02:17:32.327Z,96038.59
2022-07-29T02:19:58.996Z,96039.16
2022-07-29T02:22:25.858Z,96038.09
2022-07-29T02:24:52.629Z,96033.06
2022-07-29T02:27:19.502Z,96031.63
2022-07-29T02:29:45.997Z,96024.94
2022-07-29T02:32:12.641Z,96022.94
2022-07-29T02:34:40.287Z,96022.41
2022-07-29T02:37:07.867Z,96031.28
2022-07-29T02:39:34.455Z,96037.03
2022-07-29T02:42:01.185Z,96030.69
2022-07-29T02:44:32.734Z,96028.53
2022-07-29T02:47:03.452Z,96027.94
2022-07-29T02:49:30.862Z,96028.00
2022-07-29T02:51:57.423Z,96030.38
2022-07-29T02:54:24.121Z,96031.03
2022-07-29T02:56:53.943Z,96027.66
2022-07-29T02:59:20.738Z,96029.81
2022-07-29T03:01:47.741Z,96037.41
2022-07-29T03:04:17.289Z,96042.13
2022-07-29T03:06:45.220Z,96042.63
2022-07-29T03:09:13.781Z,96037.75
2022-07-29T03:11:42.492Z,96039.75
2022-07-29T03:14:17.092Z,96043.34
2022-07-29T03:16:45.119Z,96047.53
2022-07-29T03:19:11.749Z,96042.84
2022-07-29T03:21:38.391Z,96051.69
2022-07-29T03:24:10.678Z,96049.50
2022-07-29T03:26:37.752Z,96051.88
2022-07-29T03:29:04.405Z,96037.41
2022-07-29T03:31:31.236Z,96039.19
2022-07-29T03:33:58.720Z,96042.25
2022-07-29T03:36:25.466Z,96040.09
2022-07-29T03:38:52.223Z,96039.00
2022-07-29T03:41:22.510Z,96038.38
2022-07-29T03:43:50.029Z,96047.75
2022-07-29T03:46:16.730Z,96046.63
2022-07-29T03:48:43.774Z,96046.59
2022-07-29T03:51:11.670Z,96036.63
2022-07-29T03:53:39.192Z,96043.13
2022-07-29T03:56:06.093Z,96047.63
2022-07-29T03:58:32.654Z,96052.84
2022-07-29T04:00:59.192Z,96051.00
2022-07-29T04:03:28.054Z,96041.81
2022-07-29T04:05:54.942Z,96050.28
2022-07-29T04:08:22.067Z,96050.47
2022-07-29T04:10:48.718Z,96058.03
2022-07-29T04:13:35.267Z,96058.03
2022-07-29T04:16:02.329Z,96060.75
2022-07-29T04:18:29.071Z,96058.59
2022-07-29T04:20:55.975Z,96051.53
2022-07-29T04:23:22.859Z,96059.50
2022-07-29T04:25:49.609Z,96053.38
2022-07-29T04:28:17.080Z,96052.25
2022-07-29T04:30:44.139Z,96056.09
2022-07-29T04:33:11.125Z,96066.03
2022-07-29T04:35:38.929Z,96074.16
2022-07-29T04:38:17.351Z,96076.88
2022-07-29T04:40:43.999Z,96082.28
2022-07-29T04:43:12.552Z,96077.59
2022-07-29T04:45:41.346Z,96078.31
2022-07-29T04:48:10.356Z,96083.94
2022-07-29T04:50:37.925Z,96083.94
2022-07-29T04:53:04.584Z,96078.69
2022-07-29T04:55:31.334Z,96077.97
2022-07-29T04:57:58.048Z,96091.00
2022-07-29T05:00:33.058Z,96089.19
2022-07-29T05:03:00.453Z,96085.03
2022-07-29T05:05:27.104Z,96086.16
2022-07-29T05:07:53.875Z,96093.44
2022-07-29T05:10:20.481Z,96097.88
2022-07-29T05:12:47.020Z,96100.03
2022-07-29T05:15:13.929Z,96101.50
2022-07-29T05:17:40.533Z,96102.38
2022-07-29T05:20:07.364Z,96101.13
2022-07-29T05:22:33.934Z,96099.59
2022-07-29T05:25:04.299Z,96107.25
2022-07-29T05:27:33.790Z,96108.88
2022-07-29T05:30:00.401Z,96105.78
2022-07-29T05:32:26.965Z,96108.47
2022-07-29T05:34:54.512Z,96110.81
2022-07-29T05:37:22.955Z,96113.50
2022-07-29T05:39:56.176Z,96102.97
2022-07-29T05:42:23.617Z,96107.88
2022-07-29T05:44:53.317Z,96109.31
2022-07-29T05:47:20.880Z,96117.28
2022-07-29T05:49:48.450Z,96116.84
2022-07-29T05:52:15.083Z,96125.13
2022-07-29T05:54:41.794Z,96127.09
2022-07-29T05:57:08.489Z,96128.09
2022-07-29T05:59:36.462Z,96135.53
2022-07-29T06:02:03.131Z,96136.94
2022-07-29T06:04:29.883Z,96131.09
2022-07-29T06:06:56.584Z,96132.69
2022-07-29T06:09:23.918Z,96130.66
2022-07-29T06:11:50.506Z,96132.94
2022-07-29T06:14:19.815Z,96131.78
2022-07-29T06:16:47.804Z,96134.69
2022-07-29T06:19:14.565Z,96135.25
2022-07-29T06:21:41.957Z,96134.50
2022-07-29T06:24:09.212Z,96126.09
2022-07-29T06:26:39.710Z,96133.06
2022-07-29T06:29:26.186Z,96142.84
2022-07-29T06:31:53.952Z,96147.97
2022-07-29T06:34:20.842Z,96147.78
2022-07-29T06:36:47.708Z,96152.69
2022-07-29T06:39:15.474Z,96157.00
2022-07-29T06:41:43.493Z,96154.25
2022-07-29T06:44:13.641Z,96154.03
2022-07-29T06:46:40.422Z,96149.56
2022-07-29T06:49:09.050Z,96148.25
2022-07-29T06:51:35.738Z,96140.66
2022-07-29T06:54:13.475Z,96152.84
2022-07-29T06:56:40.610Z,96144.22
2022-07-29T06:59:09.683Z,96155.06
2022-07-29T07:01:37.437Z,96142.63
2022-07-29T07:04:04.134Z,96145.06
2022-07-29T07:06:30.955Z,96150.16
2022-07-29T07:08:57.571Z,96145.75
2022-07-29T07:11:24.139Z,96150.69
2022-07-29T07:16:20.548Z,96162.06
2022-07-29T07:18:47.404Z,96162.41
2022-07-29T07:21:19.295Z,96160.31
2022-07-29T07:23:46.258Z,96154.50
2022-07-29T07:26:15.430Z,96143.88
2022-07-29T07:28:42.409Z,96157.06
2022-07-29T07:31:11.605Z,96153.00
2022-07-29T07:33:38.298Z,96158.97
2022-07-29T07:36:05.447Z,96172.19
2022-07-29T07:38:32.361Z,96175.66
2022-07-29T07:40:58.993Z,96166.97
2022-07-29T07:43:25.586Z,96173.50
2022-07-29T07:45:52.815Z,96174.25
2022-07-29T07:48:42.079Z,96178.25
2022-07-29T07:51:11.740Z,96189.09
2022-07-29T07:53:38.547Z,96184.56
2022-07-29T07:56:11.019Z,96192.75
2022-07-29T07:58:38.744Z,96192.38
2022-07-29T08:01:05.617Z,96190.53
2022-07-29T08:03:32.212Z,96188.94
2022-07-29T08:06:00.421Z,96180.06
2022-07-29T08:08:27.151Z,96183.31
2022-07-29T08:10:53.744Z,96179.31
2022-07-29T08:13:20.433Z,96180.81
2022-07-29T08:15:47.400Z,96185.88
2022-07-29T08:18:14.349Z,96193.81
2022-07-29T08:20:41.322Z,96187.31
2022-07-29T08:23:08.122Z,96186.75
2022-07-29T08:25:34.770Z,96189.66
2022-07-29T08:28:05.551Z,96190.19
2022-07-29T08:30:32.159Z,96191.66
2022-07-29T08:32:59.306Z,96185.88
2022-07-29T08:35:26.224Z,96201.78
2022-07-29T08:37:56.824Z,96192.38
2022-07-29T08:40:31.976Z,96200.69
2022-07-29T08:42:59.689Z,96192.38
2022-07-29T08:45:27.894Z,96195.22
2022-07-29T08:47:54.824Z,96188.75
2022-07-29T08:50:21.454Z,96196.00
2022-07-29T08:52:47.996Z,96198.19
2022-07-29T08:55:14.802Z,96191.28
2022-07-29T08:57:51.092Z,96194.91
2022-07-29T09:00:21.116Z,96198.91
2022-07-29T09:02:48.113Z,96203.25
2022-07-29T09:05:14.950Z,96200.53
2022-07-29T09:07:45.219Z,96207.59
2022-07-29T09:10:12.015Z,96196.75
2022-07-29T09:12:38.807Z,96203.78
2022-07-29T09:15:05.438Z,96213.75
2022-07-29T09:17:32.660Z,96207.78
2022-07-29T09:19:59.291Z,96211.22
2022-07-29T09:22:31.355Z,96217.38
2022-07-29T09:24:58.353Z,96210.50
2022-07-29T09:27:25.233Z,96220.28
2022-07-29T09:29:52.852Z,96214.13
2022-07-29T09:32:19.959Z,96219.00
2022-07-29T09:34:46.570Z,96211.41
2022-07-29T09:37:13.180Z,96210.69
2022-07-29T09:39:39.750Z,96214.84
2022-07-29T09:42:07.403Z,96214.13
2022-07-29T09:44:33.989Z,96216.84
2022-07-29T09:47:02.298Z,96208.50
2022-07-29T09:49:29.035Z,96217.00
2022-07-29T09:51:55.846Z,96213.41
2022-07-29T09:54:22.653Z,96207.06
2022-07-29T09:56:49.294Z,96210.50
2022-07-29T09:59:16.217Z,96211.41
2022-07-29T10:01:42.943Z,96223.00
2022-07-29T10:04:09.923Z,96217.56
2022-07-29T10:06:36.583Z,96211.75
2022-07-29T10:09:03.279Z,96220.44
2022-07-29T10:11:48.364Z,96209.97
2022-07-29T10:14:16.819Z,96211.41
2022-07-29T10:16:45.620Z,96223.16
2022-07-29T10:19:12.432Z,96221.72
2022-07-29T10:21:39.732Z,96222.44
2022-07-29T10:24:06.455Z,96222.06
2022-07-29T10:26:34.778Z,96218.84
2022-07-29T10:29:01.722Z,96216.47
2022-07-29T10:31:28.598Z,96233.31
2022-07-29T10:33:55.198Z,96228.06
2022-07-29T10:36:21.973Z,96229.34
2022-07-29T10:38:50.187Z,96228.25
2022-07-29T10:44:03.752Z,96228.22
2022-07-29T10:46:30.534Z,96232.59
2022-07-29T10:48:57.760Z,96232.59
2022-07-29T10:51:24.795Z,96233.50
2022-07-29T10:53:52.339Z,96235.66
2022-07-29T10:56:20.179Z,96236.03
2022-07-29T10:58:52.958Z,96246.38
2022-07-29T11:01:22.739Z,96244.88
2022-07-29T11:04:04.699Z,96257.25
2022-07-29T11:06:31.349Z,96266.66
2022-07-29T11:08:58.390Z,96274.63
2022-07-29T11:11:29.597Z,96278.06
2022-07-29T11:13:58.531Z,96298.88
2022-07-29T11:16:27.515Z,96305.38
2022-07-29T11:18:54.153Z,96316.22
2022-07-29T11:21:23.350Z,96325.78
2022-07-29T11:23:52.047Z,96340.31
2022-07-29T11:26:19.091Z,96358.50
2022-07-29T11:28:45.795Z,96353.03
2022-07-29T11:31:12.451Z,96363.16
2022-07-29T11:36:28.315Z,96376.94
2022-07-29T11:38:55.449Z,96381.47
2022-07-29T11:41:22.738Z,96388.34
2022-07-29T11:43:50.610Z,96392.72
2022-07-29T11:46:25.026Z,96388.16
2022-07-29T11:48:52.261Z,96386.13
2022-07-29T11:51:19.618Z,96389.50
2022-07-29T11:56:45.386Z,96384.75
2022-07-29T11:59:15.259Z,96395.88
2022-07-29T12:01:42.271Z,96386.72
2022-07-29T12:04:11.343Z,96399.31
2022-07-29T12:06:40.690Z,96387.66
2022-07-29T12:09:15.159Z,96393.88
2022-07-29T12:11:53.957Z,96397.03
2022-07-29T12:14:20.533Z,96391.09
2022-07-29T12:16:47.274Z,96395.75
2022-07-29T12:19:13.893Z,96399.00
2022-07-29T12:21:40.456Z,96398.88
2022-07-29T12:24:19.355Z,96395.97
2022-07-29T12:26:49.558Z,96402.84
2022-07-29T12:29:19.993Z,96398.53
2022-07-29T12:31:48.215Z,96404.50
2022-07-29T12:34:14.993Z,96395.34
2022-07-29T12:36:43.395Z,96400.13
2022-07-29T12:39:09.970Z,96394.53
2022-07-29T12:41:39.451Z,96405.84
2022-07-29T12:44:06.034Z,96402.00
2022-07-29T12:46:35.897Z,96405.53
2022-07-29T12:49:04.840Z,96406.38
2022-07-29T12:51:31.567Z,96398.47
2022-07-29T12:53:59.027Z,96401.47
2022-07-29T12:56:42.135Z,96404.50
2022-07-29T12:59:09.869Z,96413.06
2022-07-29T13:01:36.463Z,96411.59
2022-07-29T13:04:03.706Z,96405.88
2022-07-29T13:06:30.349Z,96410.25
2022-07-29T13:08:57.149Z,96412.72
2022-07-29T13:11:23.675Z,96406.50
2022-07-29T13:14:06.753Z,96409.91
2022-07-29T13:16:34.478Z,96416.28
2022-07-29T13:19:04.886Z,96418.03
2022-07-29T13:21:31.632Z,96422.00
2022-07-29T13:23:58.195Z,96424.50
2022-07-29T13:26:26.054Z,96422.72
2022-07-29T13:28:52.567Z,96417.41
2022-07-29T13:31:19.039Z,96420.63
2022-07-29T13:33:46.768Z,96423.22
2022-07-29T13:36:13.325Z,96421.38
2022-07-29T13:38:40.006Z,96430.94
2022-07-29T13:41:11.788Z,96428.66
2022-07-29T13:43:38.444Z,96424.97
2022-07-29T13:46:05.466Z,96425.50
2022-07-29T13:48:33.279Z,96416.53
2022-07-29T13:51:00.018Z,96420.56
2022-07-29T13:53:28.320Z,96418.16
2022-07-29T13:55:55.051Z,96423.22
2022-07-29T13:58:21.645Z,96422.41
2022-07-29T14:00:48.282Z,96420.78
2022-07-29T14:03:14.997Z,96425.69
2022-07-29T14:05:41.818Z,96412.41
2022-07-29T14:08:08.703Z,96402.09
2022-07-29T14:10:35.521Z,96395.91
2022-07-29T14:13:02.295Z,96399.72
2022-07-29T14:15:30.270Z,96396.34
2022-07-29T14:17:57.164Z,96403.09
2022-07-29T14:20:23.955Z,96386.00
2022-07-29T14:22:50.538Z,96386.84
2022-07-29T14:25:17.086Z,96384.06
2022-07-29T14:27:44.118Z,96390.63
2022-07-29T14:30:10.741Z,96387.97
2022-07-29T14:32:37.463Z,96377.81
2022-07-29T14:35:04.318Z,96381.63
2022-07-29T14:37:40.181Z,96383.50
2022-07-29T14:40:14.866Z,96380.22
2022-07-29T14:42:41.520Z,96382.97
2022-07-29T14:45:08.432Z,96386.16
2022-07-29T14:47:35.110Z,96381.78
2022-07-29T14:50:01.620Z,96380.31
2022-07-29T14:52:28.222Z,96375.66
2022-07-29T14:54:54.826Z,96373.19
2022-07-29T14:57:23.197Z,96361.97
2022-07-29T14:59:49.820Z,96359.78
2022-07-29T15:02:16.651Z,96364.00
2022-07-29T15:04:43.445Z,96358.22
2022-07-29T15:07:10.830Z,96363.63
2022-07-29T15:09:40.282Z,96362.22
2022-07-29T15:12:16.343Z,96363.22
2022-07-29T15:14:43.366Z,96361.66
2022-07-29T15:17:10.060Z,96355.47
2022-07-29T15:19:37.104Z,96352.97
2022-07-29T15:22:06.402Z,96346.63
2022-07-29T15:24:33.527Z,96345.75
2022-07-29T15:27:00.942Z,96341.69
2022-07-29T15:29:28.017Z,96341.53
2022-07-29T15:31:55.685Z,96340.91
2022-07-29T15:34:22.931Z,96345.94
2022-07-29T15:36:52.629Z,96348.06
2022-07-29T15:39:23.132Z,96342.06
2022-07-29T15:41:49.838Z,96344.78
2022-07-29T15:44:16.781Z,96336.13
2022-07-29T15:46:50.920Z,96347.69
2022-07-29T15:49:19.378Z,96338.78
2022-07-29T15:51:49.681Z,96337.75
2022-07-29T15:54:17.119Z,96339.56
2022-07-29T15:56:43.682Z,96335.78
2022-07-29T15:59:22.055Z,96332.84
2022-07-29T16:01:49.595Z,96338.22
2022-07-29T16:04:16.479Z,96322.72
2022-07-29T16:06:43.130Z,96331.75
2022-07-29T16:09:09.902Z,96330.16
2022-07-29T16:14:42.754Z,96328.47
2022-07-29T16:17:14.192Z,96330.75
2022-07-29T16:19:43.530Z,96331.53
2022-07-29T16:22:10.693Z,96330.81
2022-07-29T16:24:37.746Z,96330.53
2022-07-29T16:27:04.557Z,96332.53
2022-07-29T16:29:31.125Z,96331.94
2022-07-29T16:31:58.629Z,96327.16
2022-07-29T16:34:26.102Z,96331.72
2022-07-29T16:36:52.663Z,96336.97
2022-07-29T16:39:21.834Z,96336.75
2022-07-29T16:41:49.915Z,96328.69
2022-07-29T16:44:16.759Z,96334.44
2022-07-29T16:46:44.774Z,96335.94
2022-07-29T16:49:11.699Z,96329.97
2022-07-29T16:51:41.693Z,96338.22
2022-07-29T16:54:09.324Z,96335.53
2022-07-29T16:56:36.926Z,96334.19
2022-07-29T16:59:06.021Z,96338.66
2022-07-29T17:01:32.853Z,96340.31
2022-07-29T17:04:04.454Z,96327.00
2022-07-29T17:06:32.062Z,96337.03
2022-07-29T17:08:58.846Z,96337.88
2022-07-29T17:11:52.941Z,96326.38
2022-07-29T17:14:15.243Z,96331.41
2022-07-29T17:16:42.037Z,96335.53
2022-07-29T17:19:18.202Z,96324.38
2022-07-29T17:21:49.167Z,96333.84
2022-07-29T17:24:15.883Z,96336.38
2022-07-29T17:26:44.129Z,96340.03
2022-07-29T17:29:10.890Z,96341.13
2022-07-29T17:31:37.899Z,96348.78
2022-07-29T17:34:04.426Z,96339.94
2022-07-29T17:36:31.300Z,96345.84
2022-07-29T17:38:58.019Z,96339.69
2022-07-29T17:41:25.027Z,96337.19
2022-07-29T17:43:51.887Z,96340.22
2022-07-29T17:46:18.540Z,96341.59
2022-07-29T17:48:45.250Z,96342.41
2022-07-29T17:51:12.698Z,96344.97
2022-07-29T17:53:40.125Z,96348.59
2022-07-29T17:56:06.789Z,96352.25
2022-07-29T17:58:33.394Z,96353.69
2022-07-29T18:01:00.320Z,96347.00
2022-07-29T18:03:27.284Z,96348.25
2022-07-29T18:06:01.119Z,96345.88
2022-07-29T18:08:27.714Z,96347.88
2022-07-29T18:10:54.580Z,96350.19
2022-07-29T18:13:21.202Z,96349.81
2022-07-29T18:15:47.795Z,96350.13
2022-07-29T18:18:14.429Z,96352.22
2022-07-29T18:20:41.179Z,96360.50
2022-07-29T18:23:10.905Z,96358.44
2022-07-29T18:25:39.044Z,96354.81
2022-07-29T18:28:05.950Z,96361.63
2022-07-29T18:30:32.818Z,96360.50
2022-07-29T18:33:20.321Z,96366.97
2022-07-29T18:35:46.767Z,96362.22
2022-07-29T18:38:17.331Z,96371.19
2022-07-29T18:40:46.328Z,96371.81
2022-07-29T18:43:12.939Z,96365.69
2022-07-29T18:45:39.890Z,96367.81
2022-07-29T18:48:07.505Z,96375.81
2022-07-29T18:50:46.873Z,96370.09
2022-07-29T18:53:13.792Z,96365.66
2022-07-29T18:55:43.092Z,96358.25
2022-07-29T18:58:09.999Z,96362.94
2022-07-29T19:00:36.896Z,96363.25
2022-07-29T19:03:03.500Z,96366.81
2022-07-29T19:05:30.765Z,96364.97
2022-07-29T19:07:57.303Z,96373.91
2022-07-29T19:10:25.168Z,96379.94
2022-07-29T19:12:52.039Z,96384.75
2022-07-29T19:15:21.123Z,96384.22
2022-07-29T19:17:47.673Z,96394.19
2022-07-29T19:20:16.797Z,96389.63
2022-07-29T19:22:43.746Z,96397.09
2022-07-29T19:25:10.331Z,96405.34
2022-07-29T19:27:41.983Z,96403.56
2022-07-29T19:30:12.205Z,96409.22
2022-07-29T19:32:40.891Z,96421.34
2022-07-29T19:35:07.764Z,96412.78
2022-07-29T19:37:34.380Z,96420.59
2022-07-29T19:40:00.946Z,96430.69
2022-07-29T19:42:28.062Z,96429.00
2022-07-29T19:44:55.012Z,96434.75
2022-07-29T19:47:22.596Z,96431.28
2022-07-29T19:49:50.050Z,96445.31
2022-07-29T19:54:57.089Z,96446.16
2022-07-29T19:57:24.228Z,96450.63
2022-07-29T19:59:51.225Z,96454.16
2022-07-29T20:02:18.341Z,96457.00
2022-07-29T20:04:45.139Z,96463.56
2022-07-29T20:07:11.780Z,96464.28
2022-07-29T20:09:38.399Z,96465.53
2022-07-29T20:12:06.678Z,96467.88
2022-07-29T20:14:35.558Z,96462.47
2022-07-29T20:17:02.432Z,96473.72
2022-07-29T20:19:30.029Z,96466.94
2022-07-29T20:21:56.976Z,96464.44
2022-07-29T20:24:23.522Z,96467.28
2022-07-29T20:26:50.242Z,96471.09
2022-07-29T20:29:16.797Z,96477.25
2022-07-29T20:31:43.388Z,96464.16
2022-07-29T20:34:10.322Z,96471.84
2022-07-29T20:36:36.929Z,96460.50
2022-07-29T20:39:03.373Z,96454.81
2022-07-29T20:41:30.301Z,96463.34
2022-07-29T20:43:56.866Z,96469.41
2022-07-29T20:46:23.762Z,96463.72
2022-07-29T20:48:50.369Z,96456.13
2022-07-29T20:51:20.294Z,96450.72
2022-07-29T20:53:46.832Z,96456.13
2022-07-29T20:56:13.406Z,96452.69
2022-07-29T20:58:40.017Z,96452.69
2022-07-29T21:01:06.719Z,96460.06
2022-07-29T21:03:33.382Z,96453.19
2022-07-29T21:06:01.013Z,96458.59
2022-07-29T21:08:28.587Z,96452.97
2022-07-29T21:10:55.240Z,96455.47
2022-07-29T21:13:21.846Z,96453.59
2022-07-29T21:15:50.432Z,96456.50
2022-07-29T21:18:16.966Z,96458.03
2022-07-29T21:20:43.615Z,96459.00
2022-07-29T21:23:10.654Z,96454.03
2022-07-29T21:25:38.678Z,96458.94
2022-07-29T21:28:05.511Z,96452.66
2022-07-29T21:30:32.395Z,96456.75
2022-07-29T21:32:59.104Z,96455.56
2022-07-29T21:36:07.331Z,96453.22
2022-07-29T21:38:20.062Z,96450.00
2022-07-29T21:40:46.655Z,96452.94
2022-07-29T21:43:13.205Z,96466.31
2022-07-29T21:45:39.935Z,96460.22
2022-07-29T21:48:06.825Z,96465.28
2022-07-29T21:50:33.636Z,96467.41
2022-07-29T21:53:00.678Z,96463.66
2022-07-29T21:55:29.720Z,96463.38
2022-07-29T21:58:02.747Z,96467.75
2022-07-29T22:00:30.997Z,96471.47
2022-07-29T22:02:57.891Z,96467.41
2022-07-29T22:05:24.802Z,96466.38
2022-07-29T22:07:56.148Z,96467.63
2022-07-29T22:10:23.727Z,96468.78
2022-07-29T22:12:50.311Z,96464.75
2022-07-29T22:15:17.454Z,96470.47
2022-07-29T22:17:45.037Z,96476.09
2022-07-29T22:20:12.365Z,96465.91
2022-07-29T22:22:39.940Z,96479.09
2022-07-29T22:25:06.959Z,96476.16
2022-07-29T22:27:36.301Z,96480.53
2022-07-29T22:30:03.044Z,96485.22
2022-07-29T22:32:30.455Z,96484.19
2022-07-29T22:34:57.388Z,96489.81
2022-07-29T22:37:26.602Z,96481.25
2022-07-29T22:39:53.937Z,96484.19
2022-07-29T22:42:20.546Z,96488.63
2022-07-29T22:44:47.126Z,96490.09
2022-07-29T22:47:13.746Z,96490.31
2022-07-29T22:49:40.373Z,96496.75
2022-07-29T22:52:07.263Z,96496.75
2022-07-29T22:54:34.337Z,96493.84
2022-07-29T22:57:02.124Z,96499.44
2022-07-29T22:59:29.500Z,96495.50
2022-07-29T23:01:56.237Z,96508.28
2022-07-29T23:04:22.995Z,96503.84
2022-07-29T23:06:49.578Z,96501.84
2022-07-29T23:09:17.565Z,96503.09
2022-07-29T23:11:44.218Z,96501.84
2022-07-29T23:14:10.831Z,96506.75
2022-07-29T23:16:37.443Z,96504.78
2022-07-29T23:19:04.058Z,96511.13
2022-07-29T23:21:31.609Z,96505.72
2022-07-29T23:23:58.437Z,96504.28
2022-07-29T23:26:25.057Z,96506.44
2022-07-29T23:28:51.869Z,96508.56
2022-07-29T23:31:18.826Z,96504.84
2022-07-29T23:33:45.486Z,96503.66
2022-07-29T23:36:12.275Z,96505.56
2022-07-29T23:38:38.774Z,96506.81
2022-07-29T23:41:06.322Z,96505.81
2022-07-29T23:43:33.224Z,96511.41
2022-07-29T23:46:00.637Z,96511.41
2022-07-29T23:48:28.145Z,96509.78
2022-07-29T23:50:54.855Z,96513.91
2022-07-29T23:53:21.915Z,96509.00
2022-07-29T23:55:49.494Z,96509.72
2022-07-29T23:58:16.121Z,96510.25
